Time;durP1;ratioP1;P1;durP2;ratioP2;P2;SDS_P1;SDS_P2;PMS_P1;PMS_P2;Temp;Humidity;BMP_temperature;BMP_pressure;BME280_temperature;BME280_humidity;BME280_pressure;Samples;Min_cycle;Max_cycle;Signal;HPM_P1;HPM_P2
2022/03/31 00:00:05;;;;;;;32.40;18.45;;;7.00;99.90;;;;;;4206207;28;20618;-63
2022/03/31 00:02:08;;;;;;;33.53;19.00;;;7.00;99.90;;;;;;4210531;28;20055;-63
2022/03/31 00:04:10;;;;;;;33.97;18.70;;;6.90;99.90;;;;;;4214323;28;20813;-63
2022/03/31 00:06:12;;;;;;;33.70;18.42;;;6.80;99.90;;;;;;4209542;28;20148;-62
2022/03/31 00:08:15;;;;;;;35.80;19.40;;;6.80;99.90;;;;;;4207085;28;20099;-63
2022/03/31 00:10:23;;;;;;;33.80;19.00;;;6.80;99.90;;;;;;4207464;28;20091;-63
2022/03/31 00:12:25;;;;;;;34.10;18.35;;;6.80;99.90;;;;;;4208535;28;21095;-63
2022/03/31 00:14:27;;;;;;;29.27;17.65;;;6.80;99.90;;;;;;4209732;28;20146;-63
2022/03/31 00:16:29;;;;;;;35.38;18.65;;;6.70;99.90;;;;;;4206124;28;20083;-63
2022/03/31 00:18:31;;;;;;;32.22;17.73;;;6.80;99.90;;;;;;4208803;28;20131;-63
2022/03/31 00:20:33;;;;;;;31.48;19.05;;;6.80;99.90;;;;;;4204768;28;20129;-62
2022/03/31 00:22:35;;;;;;;36.05;20.45;;;6.80;99.90;;;;;;4210722;28;20163;-63
2022/03/31 00:24:37;;;;;;;33.10;18.88;;;6.90;99.90;;;;;;4205564;28;20061;-63
2022/03/31 00:26:38;;;;;;;30.23;18.58;;;6.80;99.90;;;;;;4208783;28;20063;-64
2022/03/31 00:28:40;;;;;;;32.78;19.10;;;6.70;99.90;;;;;;4206465;28;20057;-63
2022/03/31 00:30:42;;;;;;;33.20;19.02;;;6.70;99.90;;;;;;4215513;28;20057;-63
2022/03/31 00:32:44;;;;;;;35.88;19.00;;;6.80;99.90;;;;;;4214810;28;20060;-63
2022/03/31 00:34:46;;;;;;;31.20;17.52;;;6.90;99.90;;;;;;4209190;28;20060;-63
2022/03/31 00:36:47;;;;;;;31.88;18.60;;;6.90;99.90;;;;;;4205890;28;20171;-63
2022/03/31 00:41:10;;;;;;;30.77;18.25;;;6.90;99.90;;;;;;4210080;28;20053;-63
2022/03/31 00:43:12;;;;;;;28.77;17.73;;;6.90;99.90;;;;;;4211712;28;20049;-63
2022/03/31 00:45:23;;;;;;;28.00;18.15;;;6.90;99.90;;;;;;4210963;28;20053;-64
2022/03/31 00:47:25;;;;;;;30.58;17.73;;;6.90;99.90;;;;;;4207378;28;20061;-63
2022/03/31 00:49:27;;;;;;;31.13;17.90;;;6.80;99.90;;;;;;4190244;28;20116;-61
2022/03/31 00:51:29;;;;;;;29.10;17.58;;;6.80;99.90;;;;;;4209885;28;20114;-63
2022/03/31 00:53:31;;;;;;;26.33;16.45;;;6.80;99.90;;;;;;4211294;28;20061;-63
2022/03/31 00:55:34;;;;;;;28.48;16.55;;;6.80;99.90;;;;;;4211967;28;20605;-63
2022/03/31 00:57:37;;;;;;;25.58;17.08;;;6.80;99.90;;;;;;4211383;28;20080;-63
2022/03/31 00:59:39;;;;;;;27.35;17.05;;;6.80;99.90;;;;;;4212943;28;20102;-63
2022/03/31 01:01:43;;;;;;;34.90;19.92;;;6.80;99.90;;;;;;4204111;28;20105;-64
2022/03/31 01:03:45;;;;;;;27.40;17.40;;;6.70;99.90;;;;;;4204346;28;20211;-63
2022/03/31 01:05:46;;;;;;;31.52;18.13;;;6.70;99.90;;;;;;4207436;28;20856;-64
2022/03/31 01:07:48;;;;;;;31.90;18.35;;;6.70;99.90;;;;;;4206990;28;20096;-64
2022/03/31 01:09:50;;;;;;;30.17;17.60;;;6.70;99.90;;;;;;4207731;28;20155;-62
2022/03/31 01:11:52;;;;;;;27.88;17.42;;;6.70;99.90;;;;;;4207654;28;20053;-64
2022/03/31 01:13:55;;;;;;;34.70;18.08;;;6.80;99.90;;;;;;4205622;28;20078;-64
2022/03/31 01:15:56;;;;;;;31.92;18.50;;;6.70;99.90;;;;;;4207493;28;20159;-63
2022/03/31 01:17:58;;;;;;;29.80;17.33;;;6.70;99.90;;;;;;4209804;28;20175;-63
2022/03/31 01:20:00;;;;;;;30.52;16.52;;;6.80;99.90;;;;;;4203535;28;20797;-63
2022/03/31 01:22:02;;;;;;;27.65;18.08;;;6.90;99.90;;;;;;4203678;28;20176;-64
2022/03/31 01:24:09;;;;;;;26.88;17.10;;;6.90;99.90;;;;;;4206040;28;20087;-63
2022/03/31 01:26:11;;;;;;;29.48;17.67;;;6.90;99.90;;;;;;4190467;28;20123;-63
2022/03/31 01:28:13;;;;;;;28.73;17.33;;;6.80;99.90;;;;;;4204582;28;20766;-63
2022/03/31 01:30:24;;;;;;;32.03;17.95;;;6.90;99.90;;;;;;4204381;28;21005;-63
2022/03/31 01:32:26;;;;;;;30.55;18.52;;;6.90;99.90;;;;;;4208853;28;20122;-63
2022/03/31 01:34:28;;;;;;;32.05;18.77;;;6.90;99.90;;;;;;4211697;28;20063;-63
2022/03/31 01:36:29;;;;;;;31.58;18.77;;;6.90;99.90;;;;;;4210315;28;20122;-64
2022/03/31 01:38:31;;;;;;;30.00;18.15;;;6.90;99.90;;;;;;4209329;28;20065;-64
2022/03/31 01:40:34;;;;;;;32.33;19.75;;;6.80;99.90;;;;;;4206210;28;20138;-64
2022/03/31 01:42:36;;;;;;;31.42;18.85;;;6.80;99.90;;;;;;4207825;28;20089;-65
2022/03/31 01:44:38;;;;;;;29.52;18.73;;;6.80;99.90;;;;;;4209247;28;20088;-64
2022/03/31 01:46:40;;;;;;;30.88;18.70;;;6.80;99.90;;;;;;4205014;28;20057;-64
2022/03/31 01:48:42;;;;;;;28.30;17.90;;;6.80;99.90;;;;;;4191207;28;20089;-64
2022/03/31 01:50:43;;;;;;;30.85;18.10;;;6.80;99.90;;;;;;4207458;28;20171;-64
2022/03/31 01:52:51;;;;;;;30.13;18.08;;;6.80;99.90;;;;;;4209444;28;20092;-64
2022/03/31 01:54:53;;;;;;;32.13;19.17;;;6.90;99.90;;;;;;4218896;27;20099;-64
2022/03/31 01:56:55;;;;;;;33.22;18.77;;;6.90;99.90;;;;;;4208861;28;20101;-64
2022/03/31 01:58:57;;;;;;;31.63;18.98;;;6.80;99.90;;;;;;4207337;28;20597;-64
2022/03/31 02:00:59;;;;;;;32.25;19.35;;;6.80;99.90;;;;;;4208293;28;20652;-64
2022/03/31 02:03:01;;;;;;;31.42;17.80;;;6.80;99.90;;;;;;4208736;28;20053;-63
2022/03/31 02:05:03;;;;;;;24.70;16.10;;;6.80;99.90;;;;;;4207475;28;20566;-64
2022/03/31 02:07:05;;;;;;;26.20;17.20;;;6.80;99.90;;;;;;4205744;28;20815;-63
2022/03/31 02:09:06;;;;;;;26.70;16.33;;;6.70;99.90;;;;;;4210765;28;20052;-64
2022/03/31 02:11:08;;;;;;;27.77;16.38;;;6.70;99.90;;;;;;4209461;28;20056;-64
2022/03/31 02:13:10;;;;;;;27.30;17.45;;;6.70;99.90;;;;;;4200818;28;20964;-64
2022/03/31 02:15:12;;;;;;;26.23;16.20;;;6.70;99.90;;;;;;4205463;28;20053;-64
2022/03/31 02:17:14;;;;;;;24.42;16.05;;;6.70;99.90;;;;;;4207326;28;20142;-64
2022/03/31 02:19:15;;;;;;;23.05;15.57;;;6.70;99.90;;;;;;4195724;28;20061;-64
2022/03/31 02:21:17;;;;;;;22.92;15.40;;;6.70;99.90;;;;;;4205504;28;20929;-64
2022/03/31 02:23:19;;;;;;;20.15;14.15;;;6.70;99.90;;;;;;4205795;28;20917;-64
2022/03/31 02:25:21;;;;;;;27.50;15.25;;;6.70;99.90;;;;;;4200971;28;20134;-64
2022/03/31 02:27:22;;;;;;;27.17;15.52;;;6.70;99.90;;;;;;4204750;28;20053;-64
2022/03/31 02:29:24;;;;;;;23.88;15.40;;;6.70;99.90;;;;;;4209152;28;20084;-64
2022/03/31 02:31:31;;;;;;;23.85;15.07;;;6.70;99.90;;;;;;4207904;28;20644;-64
2022/03/31 02:33:33;;;;;;;22.73;14.65;;;6.80;99.90;;;;;;4207353;28;20061;-64
2022/03/31 02:35:35;;;;;;;21.50;13.70;;;6.80;99.90;;;;;;4205663;28;20118;-64
2022/03/31 02:37:37;;;;;;;19.55;14.20;;;6.80;99.90;;;;;;4203902;28;20059;-64
2022/03/31 02:39:38;;;;;;;19.67;13.80;;;6.70;99.90;;;;;;4208377;28;20167;-64
2022/03/31 02:41:40;;;;;;;24.23;15.10;;;6.70;99.90;;;;;;4203437;28;20134;-63
2022/03/31 02:43:42;;;;;;;25.35;14.38;;;6.80;99.90;;;;;;4202902;28;20088;-64
2022/03/31 02:45:44;;;;;;;21.77;14.20;;;6.70;99.90;;;;;;4207580;28;20168;-64
2022/03/31 02:47:46;;;;;;;23.90;15.25;;;6.70;99.90;;;;;;4208275;28;20184;-64
2022/03/31 02:49:48;;;;;;;23.40;14.60;;;6.70;99.90;;;;;;4206968;28;20636;-64
2022/03/31 02:51:50;;;;;;;26.10;15.95;;;6.70;99.90;;;;;;4185149;28;20168;-64
2022/03/31 02:56:12;;;;;;;24.15;15.70;;;6.60;99.90;;;;;;4207781;28;20175;-64
2022/03/31 02:58:14;;;;;;;22.23;13.98;;;6.70;99.90;;;;;;4209535;28;20215;-64
2022/03/31 03:00:16;;;;;;;23.33;14.15;;;6.70;99.90;;;;;;4200662;28;20130;-64
2022/03/31 03:02:17;;;;;;;23.08;15.50;;;6.70;99.90;;;;;;4203014;28;20688;-64
2022/03/31 03:04:19;;;;;;;23.45;15.50;;;6.70;99.90;;;;;;4205493;28;20057;-63
2022/03/31 03:06:21;;;;;;;21.30;13.77;;;6.70;99.90;;;;;;4203077;28;20919;-64
2022/03/31 03:08:25;;;;;;;23.60;14.38;;;6.60;99.90;;;;;;4206849;28;20167;-65
2022/03/31 03:10:27;;;;;;;20.38;13.00;;;6.60;99.90;;;;;;4202826;28;20088;-64
2022/03/31 03:12:28;;;;;;;22.80;14.10;;;6.70;99.90;;;;;;4208360;28;20130;-64
2022/03/31 03:14:30;;;;;;;21.85;13.45;;;6.60;99.90;;;;;;4207939;28;20175;-64
2022/03/31 03:16:32;;;;;;;20.45;14.40;;;6.60;99.90;;;;;;4195753;28;20180;-64
2022/03/31 03:18:35;;;;;;;26.42;15.02;;;6.60;99.90;;;;;;4208527;28;20170;-64
2022/03/31 03:20:37;;;;;;;19.65;14.45;;;6.60;99.90;;;;;;4210911;28;20096;-64
2022/03/31 03:22:48;;;;;;;25.75;15.32;;;6.60;99.90;;;;;;4212237;28;20052;-64
2022/03/31 03:24:49;;;;;;;23.40;14.45;;;6.60;99.90;;;;;;4206508;28;21090;-63
2022/03/31 03:26:51;;;;;;;25.55;15.18;;;6.50;99.90;;;;;;4209171;28;20633;-64
2022/03/31 03:28:53;;;;;;;22.20;15.23;;;6.60;99.90;;;;;;4210939;28;20159;-64
2022/03/31 03:30:55;;;;;;;26.40;15.95;;;6.60;99.90;;;;;;4204669;28;20049;-63
2022/03/31 03:32:57;;;;;;;24.30;16.10;;;6.60;99.90;;;;;;4208389;28;20089;-63
2022/03/31 03:34:58;;;;;;;22.15;14.52;;;6.60;99.90;;;;;;4209420;28;20926;-64
2022/03/31 03:37:00;;;;;;;28.17;16.90;;;6.50;99.90;;;;;;4209431;28;20167;-63
2022/03/31 03:39:03;;;;;;;23.90;15.68;;;6.40;99.90;;;;;;4208002;28;20088;-64
2022/03/31 03:41:04;;;;;;;24.58;16.20;;;6.20;99.90;;;;;;4205726;28;20041;-63
2022/03/31 03:43:06;;;;;;;28.08;18.50;;;6.10;99.90;;;;;;4201675;28;20092;-63
2022/03/31 03:45:10;;;;;;;23.05;15.10;;;6.00;99.90;;;;;;4187658;28;20137;-64
2022/03/31 03:47:11;;;;;;;27.55;16.45;;;6.10;99.90;;;;;;4206389;28;20172;-64
2022/03/31 03:49:13;;;;;;;27.02;17.17;;;6.10;99.90;;;;;;4211144;28;20096;-63
2022/03/31 03:51:15;;;;;;;26.77;17.55;;;6.10;99.90;;;;;;4204541;28;20687;-64
2022/03/31 03:53:17;;;;;;;27.67;17.60;;;6.10;99.90;;;;;;4208017;28;20231;-63
2022/03/31 03:55:19;;;;;;;30.08;16.58;;;6.00;99.90;;;;;;4210237;28;20060;-63
2022/03/31 03:57:22;;;;;;;24.67;16.52;;;6.00;99.90;;;;;;4209927;28;20103;-64
2022/03/31 03:59:24;;;;;;;30.67;18.25;;;6.00;99.90;;;;;;4200918;28;20091;-64
2022/03/31 04:01:26;;;;;;;24.77;17.10;;;6.00;99.90;;;;;;4189056;28;20713;-63
2022/03/31 04:03:28;;;;;;;26.60;16.30;;;6.00;99.90;;;;;;4204084;28;20061;-63
2022/03/31 04:05:29;;;;;;;25.00;16.65;;;6.00;99.90;;;;;;4203924;28;20091;-64
2022/03/31 04:07:31;;;;;;;27.40;16.90;;;6.10;99.90;;;;;;4209252;28;20180;-63
2022/03/31 04:09:33;;;;;;;24.63;16.85;;;6.10;99.90;;;;;;4202780;28;20064;-63
2022/03/31 04:11:35;;;;;;;24.42;17.00;;;6.20;99.90;;;;;;4207838;28;20095;-61
2022/03/31 04:13:36;;;;;;;28.30;18.17;;;6.20;99.90;;;;;;4209049;28;20080;-64
2022/03/31 04:15:38;;;;;;;27.85;17.65;;;6.10;99.90;;;;;;4210649;28;20187;-63
2022/03/31 04:17:42;;;;;;;26.08;17.23;;;6.00;99.90;;;;;;4206329;28;20861;-64
2022/03/31 04:19:43;;;;;;;27.92;18.17;;;5.90;99.90;;;;;;4205165;28;20225;-63
2022/03/31 04:21:45;;;;;;;27.45;17.98;;;5.90;99.90;;;;;;4204018;28;20103;-64
2022/03/31 04:23:47;;;;;;;27.77;18.08;;;5.90;99.90;;;;;;4205512;28;20048;-63
2022/03/31 04:25:49;;;;;;;24.58;17.02;;;5.90;99.90;;;;;;4199774;28;20079;-63
2022/03/31 04:27:51;;;;;;;26.65;18.13;;;5.90;99.90;;;;;;4203106;28;20107;-63
2022/03/31 04:29:52;;;;;;;32.25;19.77;;;5.90;99.90;;;;;;4195260;28;20088;-64
2022/03/31 04:31:54;;;;;;;30.95;19.48;;;5.80;99.90;;;;;;4205927;28;20088;-63
2022/03/31 04:33:56;;;;;;;32.50;20.55;;;5.70;99.90;;;;;;4205240;28;20061;-63
2022/03/31 04:35:58;;;;;;;30.27;19.30;;;5.70;99.90;;;;;;4212358;28;20064;-63
2022/03/31 04:38:00;;;;;;;29.17;19.30;;;5.70;99.90;;;;;;4208055;28;20065;-63
2022/03/31 04:40:06;;;;;;;30.63;19.25;;;5.70;99.90;;;;;;4207422;28;20170;-63
2022/03/31 04:42:09;;;;;;;32.90;20.55;;;5.80;99.90;;;;;;4202031;28;20059;-63
2022/03/31 04:44:11;;;;;;;31.92;20.00;;;5.70;99.90;;;;;;4206291;28;20059;-62
2022/03/31 04:46:13;;;;;;;37.17;21.02;;;5.70;99.90;;;;;;4207770;28;20659;-64
2022/03/31 04:48:15;;;;;;;34.22;21.48;;;5.60;99.90;;;;;;4204995;28;20068;-62
2022/03/31 04:50:17;;;;;;;31.90;20.77;;;5.70;99.90;;;;;;4206083;28;20049;-62
2022/03/31 04:52:18;;;;;;;33.05;19.67;;;5.70;99.90;;;;;;4190096;28;20883;-63
2022/03/31 04:54:20;;;;;;;34.83;21.92;;;5.60;99.90;;;;;;4204274;28;20894;-63
2022/03/31 04:56:22;;;;;;;32.20;20.70;;;5.60;99.90;;;;;;4205656;28;20152;-63
2022/03/31 04:58:24;;;;;;;31.40;20.20;;;5.60;99.90;;;;;;4207540;28;20091;-63
2022/03/31 05:00:26;;;;;;;36.03;21.17;;;5.60;99.90;;;;;;4204801;28;20940;-63
2022/03/31 05:02:28;;;;;;;34.30;20.77;;;5.50;99.90;;;;;;4204144;28;21099;-63
2022/03/31 05:04:30;;;;;;;34.70;21.08;;;5.50;99.90;;;;;;4203548;28;20068;-64
2022/03/31 05:06:31;;;;;;;32.35;20.73;;;5.50;99.90;;;;;;4192494;28;20856;-63
2022/03/31 05:08:33;;;;;;;32.05;21.20;;;5.50;99.90;;;;;;4185558;28;20062;-63
2022/03/31 05:10:35;;;;;;;33.33;19.95;;;5.50;99.90;;;;;;4206717;28;20053;-63
2022/03/31 05:12:37;;;;;;;30.58;20.10;;;5.50;99.90;;;;;;4208736;28;20091;-63
2022/03/31 05:14:39;;;;;;;30.23;19.63;;;5.50;99.90;;;;;;4207582;28;20801;-63
2022/03/31 05:16:41;;;;;;;31.98;20.40;;;5.50;99.90;;;;;;4205648;28;20238;-62
2022/03/31 05:18:43;;;;;;;31.42;20.60;;;5.50;99.90;;;;;;4206203;28;20806;-63
2022/03/31 05:20:45;;;;;;;31.88;21.02;;;5.40;99.90;;;;;;4203751;28;20060;-62
2022/03/31 05:22:47;;;;;;;37.17;21.40;;;5.40;99.90;;;;;;4202095;28;20766;-63
2022/03/31 05:24:49;;;;;;;35.20;20.60;;;5.40;99.90;;;;;;4205896;28;20833;-63
2022/03/31 05:26:54;;;;;;;31.73;20.90;;;5.40;99.90;;;;;;4208758;28;20889;-63
2022/03/31 05:28:56;;;;;;;32.45;20.60;;;5.40;99.90;;;;;;4206966;28;20205;-64
2022/03/31 05:30:58;;;;;;;34.95;19.30;;;5.50;99.90;;;;;;4187433;28;20191;-63
2022/03/31 05:33:02;;;;;;;26.58;19.52;;;5.50;99.90;;;;;;4205445;28;20061;-62
2022/03/31 05:35:08;;;;;;;29.67;19.10;;;5.60;99.90;;;;;;4188266;28;20139;-63
2022/03/31 05:37:11;;;;;;;31.65;19.45;;;5.60;99.90;;;;;;4207359;28;20053;-63
2022/03/31 05:39:13;;;;;;;27.40;18.20;;;5.60;99.90;;;;;;4210733;28;20075;-62
2022/03/31 05:41:15;;;;;;;28.15;19.38;;;5.60;99.90;;;;;;4204665;28;20121;-63
2022/03/31 05:43:17;;;;;;;27.75;18.25;;;5.60;99.90;;;;;;4206646;28;20103;-63
2022/03/31 05:45:19;;;;;;;28.10;19.33;;;5.70;99.90;;;;;;4204637;28;20065;-63
2022/03/31 05:47:20;;;;;;;31.35;19.33;;;5.70;99.90;;;;;;4211217;28;20064;-63
2022/03/31 05:49:22;;;;;;;31.10;20.48;;;5.70;99.90;;;;;;4203529;28;20091;-63
2022/03/31 05:51:24;;;;;;;30.02;19.42;;;5.80;99.90;;;;;;4204404;28;20064;-63
2022/03/31 05:53:26;;;;;;;28.48;19.17;;;5.80;99.90;;;;;;4204367;28;20083;-63
2022/03/31 05:55:28;;;;;;;28.05;19.10;;;5.80;99.90;;;;;;4208379;28;20060;-63
2022/03/31 05:57:30;;;;;;;30.08;19.83;;;5.70;99.90;;;;;;4209316;28;20246;-63
2022/03/31 05:59:31;;;;;;;28.15;19.77;;;5.60;99.90;;;;;;4207408;28;20063;-63
2022/03/31 06:01:34;;;;;;;31.48;20.10;;;5.70;99.90;;;;;;4205272;28;20061;-63
2022/03/31 06:03:35;;;;;;;31.77;19.55;;;5.70;99.90;;;;;;4210494;28;20060;-63
2022/03/31 06:05:37;;;;;;;28.15;19.80;;;5.70;99.90;;;;;;4208485;28;20790;-63
2022/03/31 06:07:39;;;;;;;27.60;18.50;;;5.80;99.90;;;;;;4207440;28;20088;-63
2022/03/31 06:09:41;;;;;;;24.17;17.10;;;5.90;99.90;;;;;;4206465;28;20096;-63
2022/03/31 06:11:44;;;;;;;27.67;18.05;;;5.80;99.90;;;;;;4208279;28;20811;-63
2022/03/31 06:13:46;;;;;;;26.90;17.90;;;5.80;99.90;;;;;;4210972;28;20083;-63
2022/03/31 06:15:48;;;;;;;27.95;18.65;;;5.80;99.90;;;;;;4209455;28;20057;-63
2022/03/31 06:17:50;;;;;;;28.27;18.98;;;5.80;99.90;;;;;;4205844;28;20067;-62
2022/03/31 06:19:52;;;;;;;31.00;19.63;;;5.90;99.90;;;;;;4206430;28;20096;-63
2022/03/31 06:21:53;;;;;;;31.25;20.10;;;5.90;99.90;;;;;;4208698;28;20585;-63
2022/03/31 06:23:55;;;;;;;31.63;19.42;;;6.00;99.90;;;;;;4210542;28;20079;-63
2022/03/31 06:25:57;;;;;;;31.77;19.58;;;6.00;99.90;;;;;;4204028;28;20056;-64
2022/03/31 06:27:59;;;;;;;30.33;19.10;;;6.00;99.90;;;;;;4203473;28;20092;-63
2022/03/31 06:30:01;;;;;;;29.77;18.40;;;6.00;99.90;;;;;;4206405;28;20092;-63
2022/03/31 06:32:03;;;;;;;30.90;19.08;;;6.00;99.90;;;;;;4205990;28;20163;-63
2022/03/31 06:34:05;;;;;;;28.42;18.42;;;6.00;99.90;;;;;;4204526;28;20088;-62
2022/03/31 06:36:07;;;;;;;25.48;17.98;;;6.00;99.90;;;;;;4201875;28;20056;-63
2022/03/31 06:38:11;;;;;;;28.85;18.25;;;6.00;99.90;;;;;;4203811;28;20056;-62
2022/03/31 06:40:14;;;;;;;25.73;18.58;;;6.00;99.90;;;;;;4190811;28;20160;-63
2022/03/31 06:42:16;;;;;;;27.33;18.58;;;6.10;99.90;;;;;;4205817;28;20056;-63
2022/03/31 06:44:21;;;;;;;23.33;17.23;;;6.10;99.90;;;;;;4208046;28;20053;-63
2022/03/31 06:46:22;;;;;;;24.92;18.52;;;6.00;99.90;;;;;;4204093;28;20350;-63
2022/03/31 06:48:26;;;;;;;26.30;17.50;;;6.00;99.90;;;;;;4201543;28;20068;-62
2022/03/31 06:50:32;;;;;;;30.58;18.65;;;5.90;99.90;;;;;;4211082;28;20069;-63
2022/03/31 06:52:34;;;;;;;27.92;18.33;;;5.90;99.90;;;;;;4204623;28;20056;-63
2022/03/31 06:54:36;;;;;;;26.55;18.33;;;5.80;99.90;;;;;;4204617;28;20084;-62
2022/03/31 06:56:38;;;;;;;28.27;18.15;;;5.90;99.90;;;;;;4191031;28;20067;-62
2022/03/31 06:58:40;;;;;;;25.02;17.75;;;5.90;99.90;;;;;;4207306;28;20095;-63
2022/03/31 07:00:42;;;;;;;28.95;18.25;;;5.90;99.90;;;;;;4204286;28;20774;-63
2022/03/31 07:02:44;;;;;;;27.90;18.80;;;6.00;99.90;;;;;;4204284;28;20164;-62
2022/03/31 07:04:45;;;;;;;28.83;18.75;;;6.10;99.90;;;;;;4203196;28;20059;-63
2022/03/31 07:06:48;;;;;;;26.98;18.67;;;6.10;99.90;;;;;;4205735;28;20055;-63
2022/03/31 07:08:50;;;;;;;26.85;18.67;;;6.20;99.90;;;;;;4204735;28;20068;-63
2022/03/31 07:10:52;;;;;;;27.48;17.00;;;6.40;99.90;;;;;;4204019;28;20053;-63
2022/03/31 07:12:54;;;;;;;26.77;16.85;;;6.40;99.90;;;;;;4202646;28;20079;-63
2022/03/31 07:14:55;;;;;;;29.38;18.35;;;6.40;99.90;;;;;;4208575;28;20103;-63
2022/03/31 07:16:57;;;;;;;27.85;18.15;;;6.40;99.90;;;;;;4195380;28;20057;-62
2022/03/31 07:19:01;;;;;;;27.00;18.75;;;6.50;99.90;;;;;;4201802;28;20786;-62
2022/03/31 07:21:06;;;;;;;25.85;18.15;;;6.60;99.90;;;;;;4203555;28;20151;-63
2022/03/31 07:23:08;;;;;;;27.70;18.45;;;6.50;99.90;;;;;;4186154;28;20096;-63
2022/03/31 07:25:11;;;;;;;26.77;18.45;;;6.60;99.90;;;;;;4205213;28;20147;-63
2022/03/31 07:27:13;;;;;;;27.55;18.65;;;6.60;99.90;;;;;;4203716;28;20056;-63
2022/03/31 07:29:15;;;;;;;26.80;18.10;;;6.50;99.90;;;;;;4203845;28;20684;-63
2022/03/31 07:31:17;;;;;;;26.58;18.40;;;6.50;99.90;;;;;;4205560;28;20118;-63
2022/03/31 07:33:20;;;;;;;25.77;17.88;;;6.50;99.90;;;;;;4188038;28;20063;-63
2022/03/31 07:35:24;;;;;;;26.35;17.58;;;6.60;99.90;;;;;;4226951;22;20048;-63
2022/03/31 07:37:26;;;;;;;25.25;17.02;;;6.70;99.90;;;;;;4214131;28;20136;-63
2022/03/31 07:39:28;;;;;;;25.83;16.55;;;6.80;99.90;;;;;;4213570;28;20092;-63
2022/03/31 07:41:30;;;;;;;25.85;17.40;;;6.70;99.90;;;;;;4212523;28;20789;-62
2022/03/31 07:43:32;;;;;;;25.17;17.88;;;6.60;99.90;;;;;;4213283;28;20057;-63
2022/03/31 07:45:35;;;;;;;24.35;17.73;;;6.50;99.90;;;;;;4214308;28;20151;-63
2022/03/31 07:47:38;;;;;;;26.10;17.23;;;6.50;99.90;;;;;;4216783;28;20815;-64
2022/03/31 07:49:40;;;;;;;25.25;17.38;;;6.60;99.90;;;;;;4210784;28;20132;-63
2022/03/31 07:51:42;;;;;;;25.27;16.67;;;6.70;99.90;;;;;;4212410;28;20066;-64
2022/03/31 07:53:44;;;;;;;27.92;17.38;;;6.80;99.90;;;;;;4214613;28;20079;-63
2022/03/31 07:55:45;;;;;;;26.63;17.77;;;6.90;99.90;;;;;;4212620;28;20064;-63
2022/03/31 07:57:49;;;;;;;28.33;16.75;;;7.10;99.90;;;;;;4214149;28;20084;-63
2022/03/31 07:59:50;;;;;;;25.38;17.08;;;7.20;99.90;;;;;;4215407;28;20597;-63
2022/03/31 08:01:52;;;;;;;23.15;16.92;;;7.30;99.90;;;;;;4215974;28;20099;-63
2022/03/31 08:03:54;;;;;;;26.98;16.98;;;7.20;99.90;;;;;;4216279;28;20110;-63
2022/03/31 08:05:56;;;;;;;23.45;16.73;;;7.20;99.90;;;;;;4214906;28;20885;-63
2022/03/31 08:07:58;;;;;;;29.85;17.45;;;7.00;99.90;;;;;;4215717;28;20884;-63
2022/03/31 08:09:59;;;;;;;25.85;17.85;;;6.90;99.90;;;;;;4215274;28;20040;-63
2022/03/31 08:12:01;;;;;;;29.38;18.30;;;6.80;99.90;;;;;;4216285;28;20060;-63
2022/03/31 08:14:03;;;;;;;29.35;18.20;;;6.70;99.90;;;;;;4215084;28;20052;-63
2022/03/31 08:16:05;;;;;;;24.73;18.08;;;6.80;99.90;;;;;;4216036;28;20060;-64
2022/03/31 08:18:10;;;;;;;27.63;18.15;;;6.90;99.90;;;;;;4216604;28;20067;-64
2022/03/31 08:20:13;;;;;;;29.20;17.30;;;7.00;99.90;;;;;;4215284;28;20061;-65
2022/03/31 08:22:17;;;;;;;29.17;17.52;;;7.20;99.90;;;;;;4214161;28;20507;-63
2022/03/31 08:24:19;;;;;;;24.38;17.10;;;7.20;99.90;;;;;;4212654;28;20829;-63
2022/03/31 08:26:21;;;;;;;28.92;18.38;;;7.20;99.90;;;;;;4214757;28;20060;-63
2022/03/31 08:28:25;;;;;;;28.70;18.17;;;7.10;99.90;;;;;;4215133;28;20052;-63
2022/03/31 08:30:28;;;;;;;24.17;16.40;;;7.10;99.90;;;;;;4215258;28;20067;-64
2022/03/31 08:32:34;;;;;;;27.55;17.13;;;7.10;99.90;;;;;;4214961;28;20083;-64
2022/03/31 08:34:37;;;;;;;30.73;18.00;;;7.10;99.90;;;;;;4210857;28;20754;-63
2022/03/31 08:36:38;;;;;;;29.27;17.90;;;7.10;99.90;;;;;;4215132;28;20056;-63
2022/03/31 08:38:40;;;;;;;28.67;18.20;;;7.10;99.90;;;;;;4214628;28;20087;-63
2022/03/31 08:40:43;;;;;;;26.88;18.98;;;7.10;99.90;;;;;;4214776;28;20143;-64
2022/03/31 08:42:45;;;;;;;26.67;17.38;;;7.10;99.90;;;;;;4214539;28;20229;-63
2022/03/31 08:44:50;;;;;;;30.35;18.50;;;7.20;99.90;;;;;;4214406;28;20091;-63
2022/03/31 08:46:52;;;;;;;25.33;17.02;;;7.30;99.90;;;;;;4215078;28;20060;-63
2022/03/31 08:48:56;;;;;;;35.67;18.98;;;7.50;99.90;;;;;;4215618;28;20225;-63
2022/03/31 08:50:58;;;;;;;30.98;19.30;;;7.70;99.90;;;;;;4215637;28;20095;-63
2022/03/31 08:53:00;;;;;;;39.83;21.35;;;7.70;99.90;;;;;;4215356;28;20856;-63
2022/03/31 08:55:02;;;;;;;33.42;19.00;;;7.80;99.90;;;;;;4217789;28;20063;-63
2022/03/31 08:57:05;;;;;;;33.53;18.48;;;7.90;99.90;;;;;;4215388;28;20052;-63
2022/03/31 08:59:26;;;;;;;37.63;17.98;;;8.00;99.90;;;;;;4214725;28;20079;-63
2022/03/31 09:01:30;;;;;;;32.00;17.67;;;8.10;99.90;;;;;;4217057;28;20127;-63
2022/03/31 09:03:33;;;;;;;40.13;20.70;;;8.40;99.90;;;;;;4217839;28;20055;-63
2022/03/31 09:05:51;;;;;;;36.25;20.65;;;8.70;99.90;;;;;;4196573;28;20061;-64
2022/03/31 09:08:05;;;;;;;28.15;17.48;;;8.80;99.90;;;;;;4217178;27;20839;-63
2022/03/31 09:10:08;;;;;;;32.83;17.23;;;9.10;99.90;;;;;;4215582;28;20785;-63
2022/03/31 09:12:10;;;;;;;30.58;18.60;;;9.30;98.00;;;;;;4214849;28;20138;-63
2022/03/31 09:14:32;;;;;;;30.08;19.35;;;9.30;98.10;;;;;;4220787;28;20847;-63
2022/03/31 09:16:35;;;;;;;27.85;17.48;;;9.40;97.30;;;;;;4216253;28;20088;-63
2022/03/31 09:18:39;;;;;;;25.88;18.67;;;9.20;97.30;;;;;;4216319;28;20060;-63
2022/03/31 09:20:42;;;;;;;30.15;18.77;;;9.10;97.40;;;;;;4215051;28;20061;-63
2022/03/31 09:22:51;;;;;;;26.08;17.65;;;8.90;97.90;;;;;;4214839;28;20735;-63
2022/03/31 09:25:11;;;;;;;31.33;18.95;;;8.90;97.70;;;;;;4215732;28;20798;-63
2022/03/31 09:27:13;;;;;;;30.60;18.52;;;8.90;98.50;;;;;;4220886;28;20455;-64
2022/03/31 09:29:15;;;;;;;28.27;17.98;;;9.00;98.50;;;;;;4217607;28;20092;-63
2022/03/31 09:31:25;;;;;;;30.20;18.73;;;9.00;98.10;;;;;;4214868;28;20099;-63
2022/03/31 09:33:29;;;;;;;28.17;17.90;;;9.00;97.80;;;;;;4199236;28;20068;-64
2022/03/31 09:35:31;;;;;;;28.38;18.05;;;9.10;98.30;;;;;;4216823;28;20134;-63
2022/03/31 09:37:33;;;;;;;27.80;18.35;;;9.20;98.10;;;;;;4222073;28;20809;-64
2022/03/31 09:39:35;;;;;;;25.60;17.98;;;9.30;97.00;;;;;;4216975;28;20056;-63
2022/03/31 09:41:39;;;;;;;30.10;18.90;;;9.40;96.70;;;;;;4219375;28;20202;-63
2022/03/31 09:43:41;;;;;;;27.38;18.45;;;9.40;96.30;;;;;;4213877;28;20056;-64
2022/03/31 09:45:43;;;;;;;24.95;17.90;;;9.50;97.00;;;;;;4215714;28;20052;-64
2022/03/31 09:47:50;;;;;;;27.60;17.83;;;9.60;96.50;;;;;;4221336;28;20060;-63
2022/03/31 09:49:54;;;;;;;29.65;18.23;;;9.80;95.70;;;;;;4214015;28;20138;-63
2022/03/31 09:51:58;;;;;;;28.13;18.70;;;10.00;95.50;;;;;;4215200;28;20040;-63
2022/03/31 09:54:01;;;;;;;30.67;19.70;;;10.20;94.90;;;;;;4213513;28;20097;-63
2022/03/31 09:56:03;;;;;;;27.85;19.10;;;10.20;94.40;;;;;;4215991;28;20056;-63
2022/03/31 09:58:08;;;;;;;25.80;18.50;;;10.30;94.00;;;;;;4211266;28;20049;-63
2022/03/31 10:00:10;;;;;;;26.85;17.92;;;10.30;93.80;;;;;;4215574;28;20092;-63
2022/03/31 10:02:14;;;;;;;25.70;18.15;;;10.40;93.70;;;;;;4216511;28;20114;-64
2022/03/31 10:04:18;;;;;;;25.90;18.25;;;10.50;93.00;;;;;;4214749;28;20106;-64
2022/03/31 10:06:20;;;;;;;28.50;17.52;;;10.50;93.60;;;;;;4216152;28;20061;-63
2022/03/31 10:08:22;;;;;;;25.30;17.75;;;10.60;93.70;;;;;;4213720;28;20102;-64
2022/03/31 10:10:24;;;;;;;27.73;19.13;;;10.70;92.80;;;;;;4214674;28;20122;-64
2022/03/31 10:12:34;;;;;;;31.45;17.20;;;10.60;93.00;;;;;;4213802;28;20159;-64
2022/03/31 10:15:19;;;;;;;28.75;17.08;;;10.70;93.20;;;;;;4212370;28;20064;-64
2022/03/31 10:17:31;;;;;;;30.42;18.15;;;10.60;92.80;;;;;;4200100;28;20175;-63
2022/03/31 10:19:41;;;;;;;27.27;16.80;;;10.40;93.30;;;;;;4213301;28;20862;-64
2022/03/31 10:21:56;;;;;;;23.55;16.85;;;10.30;93.70;;;;;;4214243;28;20063;-63
2022/03/31 10:26:27;;;;;;;26.50;16.55;;;10.40;93.50;;;;;;4214363;28;20159;-63
2022/03/31 10:28:29;;;;;;;28.85;16.83;;;10.50;93.10;;;;;;4213472;28;20118;-63
2022/03/31 10:30:31;;;;;;;22.23;15.23;;;10.50;93.10;;;;;;4213798;28;20088;-63
2022/03/31 10:32:33;;;;;;;26.75;16.55;;;10.60;92.90;;;;;;4215250;28;20056;-63
2022/03/31 10:34:35;;;;;;;25.85;17.15;;;10.50;93.10;;;;;;4216000;28;20171;-64
2022/03/31 10:36:49;;;;;;;26.40;17.02;;;10.50;93.30;;;;;;4204468;28;20088;-64